sensor_id;sensor_type;location;lat;lon;timestamp;P1;durP1;ratioP1;P2;durP2;ratioP2
54123;SDS011;55741;53.252;5.788;2023-04-06T00:01:17;11.93;;;7.13;;
54123;SDS011;55741;53.252;5.788;2023-04-06T00:03:43;12.45;;;6.82;;
54123;SDS011;55741;53.252;5.788;2023-04-06T00:06:10;11.02;;;6.35;;
54123;SDS011;55741;53.252;5.788;2023-04-06T00:08:41;8.95;;;6.20;;
54123;SDS011;55741;53.252;5.788;2023-04-06T00:11:07;10.27;;;6.10;;
54123;SDS011;55741;53.252;5.788;2023-04-06T00:13:35;10.50;;;6.93;;
54123;SDS011;55741;53.252;5.788;2023-04-06T00:16:01;10.80;;;6.72;;
54123;SDS011;55741;53.252;5.788;2023-04-06T00:18:27;10.70;;;6.45;;
54123;SDS011;55741;53.252;5.788;2023-04-06T00:20:53;9.75;;;6.60;;
54123;SDS011;55741;53.252;5.788;2023-04-06T00:23:20;13.63;;;6.95;;
54123;SDS011;55741;53.252;5.788;2023-04-06T00:25:46;10.00;;;6.53;;
54123;SDS011;55741;53.252;5.788;2023-04-06T00:28:11;10.20;;;6.78;;
54123;SDS011;55741;53.252;5.788;2023-04-06T00:30:37;10.82;;;7.10;;
54123;SDS011;55741;53.252;5.788;2023-04-06T00:33:06;12.82;;;6.95;;
54123;SDS011;55741;53.252;5.788;2023-04-06T00:35:32;11.80;;;6.40;;
54123;SDS011;55741;53.252;5.788;2023-04-06T00:37:58;13.02;;;6.47;;
54123;SDS011;55741;53.252;5.788;2023-04-06T00:40:44;10.80;;;6.53;;
54123;SDS011;55741;53.252;5.788;2023-04-06T00:43:13;13.93;;;6.43;;
54123;SDS011;55741;53.252;5.788;2023-04-06T00:45:47;10.15;;;6.60;;
54123;SDS011;55741;53.252;5.788;2023-04-06T00:48:14;11.40;;;7.03;;
54123;SDS011;55741;53.252;5.788;2023-04-06T00:50:51;12.73;;;6.30;;
54123;SDS011;55741;53.252;5.788;2023-04-06T00:53:21;13.05;;;7.03;;
54123;SDS011;55741;53.252;5.788;2023-04-06T00:55:47;10.57;;;6.85;;
54123;SDS011;55741;53.252;5.788;2023-04-06T00:58:13;9.75;;;6.80;;
54123;SDS011;55741;53.252;5.788;2023-04-06T01:00:43;9.25;;;6.65;;
54123;SDS011;55741;53.252;5.788;2023-04-06T01:03:08;12.10;;;6.78;;
54123;SDS011;55741;53.252;5.788;2023-04-06T01:05:35;9.90;;;6.68;;
54123;SDS011;55741;53.252;5.788;2023-04-06T01:08:07;10.13;;;6.88;;
54123;SDS011;55741;53.252;5.788;2023-04-06T01:10:41;9.30;;;6.70;;
54123;SDS011;55741;53.252;5.788;2023-04-06T01:13:07;10.30;;;7.15;;
54123;SDS011;55741;53.252;5.788;2023-04-06T01:15:33;12.65;;;6.88;;
54123;SDS011;55741;53.252;5.788;2023-04-06T01:18:03;12.05;;;7.40;;
54123;SDS011;55741;53.252;5.788;2023-04-06T01:20:46;10.95;;;6.78;;
54123;SDS011;55741;53.252;5.788;2023-04-06T01:23:16;10.80;;;6.63;;
54123;SDS011;55741;53.252;5.788;2023-04-06T01:25:42;11.15;;;6.57;;
54123;SDS011;55741;53.252;5.788;2023-04-06T01:28:08;9.18;;;6.43;;
54123;SDS011;55741;53.252;5.788;2023-04-06T01:30:34;9.80;;;6.13;;
54123;SDS011;55741;53.252;5.788;2023-04-06T01:33:00;9.07;;;6.70;;
54123;SDS011;55741;53.252;5.788;2023-04-06T01:35:26;11.25;;;6.53;;
54123;SDS011;55741;53.252;5.788;2023-04-06T01:37:54;10.55;;;6.00;;
54123;SDS011;55741;53.252;5.788;2023-04-06T01:40:20;9.80;;;6.20;;
54123;SDS011;55741;53.252;5.788;2023-04-06T01:42:47;13.00;;;6.82;;
54123;SDS011;55741;53.252;5.788;2023-04-06T01:45:13;9.88;;;6.57;;
54123;SDS011;55741;53.252;5.788;2023-04-06T01:47:38;9.18;;;6.57;;
54123;SDS011;55741;53.252;5.788;2023-04-06T01:50:05;13.13;;;7.00;;
54123;SDS011;55741;53.252;5.788;2023-04-06T01:52:32;12.30;;;6.93;;
54123;SDS011;55741;53.252;5.788;2023-04-06T01:54:58;10.10;;;6.80;;
54123;SDS011;55741;53.252;5.788;2023-04-06T01:57:24;8.60;;;6.30;;
54123;SDS011;55741;53.252;5.788;2023-04-06T01:59:51;9.80;;;6.82;;
54123;SDS011;55741;53.252;5.788;2023-04-06T02:02:17;14.02;;;7.57;;
54123;SDS011;55741;53.252;5.788;2023-04-06T02:04:43;9.85;;;7.38;;
54123;SDS011;55741;53.252;5.788;2023-04-06T02:07:09;12.13;;;7.63;;
54123;SDS011;55741;53.252;5.788;2023-04-06T02:09:36;10.77;;;7.60;;
54123;SDS011;55741;53.252;5.788;2023-04-06T02:12:02;14.77;;;7.03;;
54123;SDS011;55741;53.252;5.788;2023-04-06T02:14:28;11.90;;;7.05;;
54123;SDS011;55741;53.252;5.788;2023-04-06T02:16:54;11.07;;;7.40;;
54123;SDS011;55741;53.252;5.788;2023-04-06T02:19:21;11.18;;;6.97;;
54123;SDS011;55741;53.252;5.788;2023-04-06T02:21:47;11.43;;;7.75;;
54123;SDS011;55741;53.252;5.788;2023-04-06T02:24:13;9.85;;;6.97;;
54123;SDS011;55741;53.252;5.788;2023-04-06T02:26:41;9.55;;;6.95;;
54123;SDS011;55741;53.252;5.788;2023-04-06T02:29:07;9.45;;;6.60;;
54123;SDS011;55741;53.252;5.788;2023-04-06T02:31:33;11.65;;;7.18;;
54123;SDS011;55741;53.252;5.788;2023-04-06T02:33:59;11.18;;;6.97;;
54123;SDS011;55741;53.252;5.788;2023-04-06T02:36:27;12.57;;;7.28;;
54123;SDS011;55741;53.252;5.788;2023-04-06T02:38:53;11.07;;;6.75;;
54123;SDS011;55741;53.252;5.788;2023-04-06T02:41:19;13.10;;;7.47;;
54123;SDS011;55741;53.252;5.788;2023-04-06T02:43:45;13.68;;;7.63;;
54123;SDS011;55741;53.252;5.788;2023-04-06T02:46:11;9.93;;;6.82;;
54123;SDS011;55741;53.252;5.788;2023-04-06T02:48:37;13.50;;;7.38;;
54123;SDS011;55741;53.252;5.788;2023-04-06T02:51:03;12.10;;;6.60;;
54123;SDS011;55741;53.252;5.788;2023-04-06T02:53:29;11.02;;;6.43;;
54123;SDS011;55741;53.252;5.788;2023-04-06T02:55:55;12.32;;;7.05;;
54123;SDS011;55741;53.252;5.788;2023-04-06T02:58:21;10.85;;;6.75;;
54123;SDS011;55741;53.252;5.788;2023-04-06T03:00:47;10.25;;;6.32;;
54123;SDS011;55741;53.252;5.788;2023-04-06T03:03:13;10.88;;;6.78;;
54123;SDS011;55741;53.252;5.788;2023-04-06T03:05:39;10.70;;;6.90;;
54123;SDS011;55741;53.252;5.788;2023-04-06T03:08:05;15.07;;;7.38;;
54123;SDS011;55741;53.252;5.788;2023-04-06T03:10:33;10.85;;;7.68;;
54123;SDS011;55741;53.252;5.788;2023-04-06T03:12:59;11.13;;;6.80;;
54123;SDS011;55741;53.252;5.788;2023-04-06T03:15:25;10.82;;;6.65;;
54123;SDS011;55741;53.252;5.788;2023-04-06T03:17:51;11.32;;;6.60;;
54123;SDS011;55741;53.252;5.788;2023-04-06T03:20:17;10.40;;;7.20;;
54123;SDS011;55741;53.252;5.788;2023-04-06T03:22:43;10.88;;;7.28;;
54123;SDS011;55741;53.252;5.788;2023-04-06T03:25:09;12.32;;;7.32;;
54123;SDS011;55741;53.252;5.788;2023-04-06T03:27:35;10.45;;;7.20;;
54123;SDS011;55741;53.252;5.788;2023-04-06T03:30:01;8.55;;;6.72;;
54123;SDS011;55741;53.252;5.788;2023-04-06T03:32:41;10.13;;;7.45;;
54123;SDS011;55741;53.252;5.788;2023-04-06T03:35:11;9.43;;;6.60;;
54123;SDS011;55741;53.252;5.788;2023-04-06T03:37:37;12.73;;;6.53;;
54123;SDS011;55741;53.252;5.788;2023-04-06T03:40:04;13.90;;;7.72;;
54123;SDS011;55741;53.252;5.788;2023-04-06T03:42:42;16.35;;;7.57;;
54123;SDS011;55741;53.252;5.788;2023-04-06T03:45:10;9.95;;;6.50;;
54123;SDS011;55741;53.252;5.788;2023-04-06T03:47:38;12.20;;;7.55;;
54123;SDS011;55741;53.252;5.788;2023-04-06T03:50:16;10.02;;;7.25;;
54123;SDS011;55741;53.252;5.788;2023-04-06T03:52:44;10.68;;;6.70;;
54123;SDS011;55741;53.252;5.788;2023-04-06T03:55:10;10.98;;;7.30;;
54123;SDS011;55741;53.252;5.788;2023-04-06T03:57:36;11.30;;;7.07;;
54123;SDS011;55741;53.252;5.788;2023-04-06T04:00:03;10.80;;;7.25;;
54123;SDS011;55741;53.252;5.788;2023-04-06T04:02:29;10.45;;;7.45;;
54123;SDS011;55741;53.252;5.788;2023-04-06T04:04:55;11.05;;;7.28;;
54123;SDS011;55741;53.252;5.788;2023-04-06T04:07:21;11.77;;;7.55;;
54123;SDS011;55741;53.252;5.788;2023-04-06T04:09:47;12.35;;;7.65;;
54123;SDS011;55741;53.252;5.788;2023-04-06T04:12:14;10.00;;;7.90;;
54123;SDS011;55741;53.252;5.788;2023-04-06T04:14:43;12.25;;;7.68;;
54123;SDS011;55741;53.252;5.788;2023-04-06T04:17:09;13.75;;;7.15;;
54123;SDS011;55741;53.252;5.788;2023-04-06T04:19:40;10.90;;;7.50;;
54123;SDS011;55741;53.252;5.788;2023-04-06T04:22:05;10.25;;;7.43;;
54123;SDS011;55741;53.252;5.788;2023-04-06T04:24:31;13.70;;;7.95;;
54123;SDS011;55741;53.252;5.788;2023-04-06T04:26:58;14.43;;;7.80;;
54123;SDS011;55741;53.252;5.788;2023-04-06T04:29:26;10.02;;;7.07;;
54123;SDS011;55741;53.252;5.788;2023-04-06T04:31:52;11.48;;;8.40;;
54123;SDS011;55741;53.252;5.788;2023-04-06T04:34:38;12.05;;;8.32;;
54123;SDS011;55741;53.252;5.788;2023-04-06T04:37:27;12.68;;;7.97;;
54123;SDS011;55741;53.252;5.788;2023-04-06T04:40:12;11.70;;;7.82;;
54123;SDS011;55741;53.252;5.788;2023-04-06T04:42:58;10.70;;;7.78;;
54123;SDS011;55741;53.252;5.788;2023-04-06T04:45:24;15.88;;;9.18;;
54123;SDS011;55741;53.252;5.788;2023-04-06T04:47:50;13.27;;;7.97;;
54123;SDS011;55741;53.252;5.788;2023-04-06T04:50:16;13.43;;;8.27;;
54123;SDS011;55741;53.252;5.788;2023-04-06T04:52:42;13.27;;;8.68;;
54123;SDS011;55741;53.252;5.788;2023-04-06T04:55:08;16.15;;;8.48;;
54123;SDS011;55741;53.252;5.788;2023-04-06T04:57:34;12.20;;;8.20;;
54123;SDS011;55741;53.252;5.788;2023-04-06T05:00:00;12.63;;;8.48;;
54123;SDS011;55741;53.252;5.788;2023-04-06T05:02:26;11.50;;;7.88;;
54123;SDS011;55741;53.252;5.788;2023-04-06T05:04:55;11.18;;;8.07;;
54123;SDS011;55741;53.252;5.788;2023-04-06T05:07:21;15.27;;;9.00;;
54123;SDS011;55741;53.252;5.788;2023-04-06T05:09:47;12.82;;;8.65;;
54123;SDS011;55741;53.252;5.788;2023-04-06T05:12:14;11.88;;;8.88;;
54123;SDS011;55741;53.252;5.788;2023-04-06T05:14:40;14.18;;;9.60;;
54123;SDS011;55741;53.252;5.788;2023-04-06T05:17:06;18.17;;;9.15;;
54123;SDS011;55741;53.252;5.788;2023-04-06T05:19:34;16.63;;;9.73;;
54123;SDS011;55741;53.252;5.788;2023-04-06T05:22:00;14.60;;;8.93;;
54123;SDS011;55741;53.252;5.788;2023-04-06T05:24:26;14.95;;;9.60;;
54123;SDS011;55741;53.252;5.788;2023-04-06T05:26:52;15.80;;;8.90;;
54123;SDS011;55741;53.252;5.788;2023-04-06T05:29:18;14.75;;;9.23;;
54123;SDS011;55741;53.252;5.788;2023-04-06T05:31:45;13.70;;;9.63;;
54123;SDS011;55741;53.252;5.788;2023-04-06T05:34:11;14.32;;;9.10;;
54123;SDS011;55741;53.252;5.788;2023-04-06T05:36:38;15.98;;;9.10;;
54123;SDS011;55741;53.252;5.788;2023-04-06T05:39:05;15.63;;;9.88;;
54123;SDS011;55741;53.252;5.788;2023-04-06T05:41:40;13.05;;;9.25;;
54123;SDS011;55741;53.252;5.788;2023-04-06T05:44:16;13.55;;;8.88;;
54123;SDS011;55741;53.252;5.788;2023-04-06T05:46:42;16.15;;;10.20;;
54123;SDS011;55741;53.252;5.788;2023-04-06T05:49:08;17.38;;;9.73;;
54123;SDS011;55741;53.252;5.788;2023-04-06T05:51:34;14.65;;;8.82;;
54123;SDS011;55741;53.252;5.788;2023-04-06T05:54:00;13.57;;;9.52;;
54123;SDS011;55741;53.252;5.788;2023-04-06T05:56:26;15.43;;;9.82;;
54123;SDS011;55741;53.252;5.788;2023-04-06T05:58:52;14.23;;;9.48;;
54123;SDS011;55741;53.252;5.788;2023-04-06T06:01:18;16.08;;;10.38;;
54123;SDS011;55741;53.252;5.788;2023-04-06T06:03:44;16.75;;;10.23;;
54123;SDS011;55741;53.252;5.788;2023-04-06T06:06:10;17.85;;;9.98;;
54123;SDS011;55741;53.252;5.788;2023-04-06T06:08:36;15.60;;;9.80;;
54123;SDS011;55741;53.252;5.788;2023-04-06T06:11:02;14.43;;;9.90;;
54123;SDS011;55741;53.252;5.788;2023-04-06T06:13:30;16.30;;;10.27;;
54123;SDS011;55741;53.252;5.788;2023-04-06T06:15:55;13.02;;;10.00;;
54123;SDS011;55741;53.252;5.788;2023-04-06T06:18:21;14.68;;;10.40;;
54123;SDS011;55741;53.252;5.788;2023-04-06T06:20:47;17.10;;;10.85;;
54123;SDS011;55741;53.252;5.788;2023-04-06T06:23:13;19.08;;;10.30;;
54123;SDS011;55741;53.252;5.788;2023-04-06T06:25:39;15.43;;;10.80;;
54123;SDS011;55741;53.252;5.788;2023-04-06T06:28:05;15.15;;;10.18;;
54123;SDS011;55741;53.252;5.788;2023-04-06T06:30:32;15.10;;;10.73;;
54123;SDS011;55741;53.252;5.788;2023-04-06T06:32:59;14.23;;;10.48;;
54123;SDS011;55741;53.252;5.788;2023-04-06T06:35:25;19.75;;;10.02;;
54123;SDS011;55741;53.252;5.788;2023-04-06T06:37:51;17.17;;;10.38;;
54123;SDS011;55741;53.252;5.788;2023-04-06T06:40:17;16.80;;;10.90;;
54123;SDS011;55741;53.252;5.788;2023-04-06T06:42:44;18.90;;;11.73;;
54123;SDS011;55741;53.252;5.788;2023-04-06T06:45:10;15.52;;;11.27;;
54123;SDS011;55741;53.252;5.788;2023-04-06T06:47:36;14.30;;;10.43;;
54123;SDS011;55741;53.252;5.788;2023-04-06T06:50:05;14.48;;;10.27;;
54123;SDS011;55741;53.252;5.788;2023-04-06T06:52:32;17.20;;;10.65;;
54123;SDS011;55741;53.252;5.788;2023-04-06T06:54:58;13.20;;;10.02;;
54123;SDS011;55741;53.252;5.788;2023-04-06T06:57:24;16.73;;;11.02;;
54123;SDS011;55741;53.252;5.788;2023-04-06T06:59:50;16.35;;;10.15;;
54123;SDS011;55741;53.252;5.788;2023-04-06T07:02:16;13.07;;;10.00;;
54123;SDS011;55741;53.252;5.788;2023-04-06T07:04:42;13.88;;;10.25;;
54123;SDS011;55741;53.252;5.788;2023-04-06T07:07:08;12.70;;;9.32;;
54123;SDS011;55741;53.252;5.788;2023-04-06T07:09:34;14.65;;;9.55;;
54123;SDS011;55741;53.252;5.788;2023-04-06T07:12:00;14.95;;;10.50;;
54123;SDS011;55741;53.252;5.788;2023-04-06T07:14:28;11.85;;;9.70;;
54123;SDS011;55741;53.252;5.788;2023-04-06T07:16:54;16.10;;;9.18;;
54123;SDS011;55741;53.252;5.788;2023-04-06T07:19:20;14.88;;;9.55;;
54123;SDS011;55741;53.252;5.788;2023-04-06T07:21:46;15.10;;;9.80;;
54123;SDS011;55741;53.252;5.788;2023-04-06T07:24:14;16.15;;;9.55;;
54123;SDS011;55741;53.252;5.788;2023-04-06T07:26:40;12.45;;;9.10;;
54123;SDS011;55741;53.252;5.788;2023-04-06T07:29:07;19.42;;;10.85;;
54123;SDS011;55741;53.252;5.788;2023-04-06T07:31:32;14.57;;;9.07;;
54123;SDS011;55741;53.252;5.788;2023-04-06T07:34:00;16.02;;;9.65;;
54123;SDS011;55741;53.252;5.788;2023-04-06T07:36:26;15.10;;;9.20;;
54123;SDS011;55741;53.252;5.788;2023-04-06T07:38:52;16.58;;;9.48;;
54123;SDS011;55741;53.252;5.788;2023-04-06T07:41:18;14.80;;;9.25;;
54123;SDS011;55741;53.252;5.788;2023-04-06T07:43:44;14.75;;;9.25;;
54123;SDS011;55741;53.252;5.788;2023-04-06T07:46:10;13.88;;;9.73;;
54123;SDS011;55741;53.252;5.788;2023-04-06T07:48:36;13.48;;;8.70;;
54123;SDS011;55741;53.252;5.788;2023-04-06T07:51:03;14.70;;;9.23;;
54123;SDS011;55741;53.252;5.788;2023-04-06T07:53:30;14.32;;;9.35;;
54123;SDS011;55741;53.252;5.788;2023-04-06T07:55:57;12.15;;;8.15;;
54123;SDS011;55741;53.252;5.788;2023-04-06T07:58:24;15.75;;;9.25;;
54123;SDS011;55741;53.252;5.788;2023-04-06T08:00:50;13.50;;;9.52;;
54123;SDS011;55741;53.252;5.788;2023-04-06T08:03:16;12.48;;;8.35;;
54123;SDS011;55741;53.252;5.788;2023-04-06T08:05:42;13.35;;;8.90;;
54123;SDS011;55741;53.252;5.788;2023-04-06T08:08:08;17.45;;;9.68;;
54123;SDS011;55741;53.252;5.788;2023-04-06T08:10:34;14.63;;;9.20;;
54123;SDS011;55741;53.252;5.788;2023-04-06T08:13:00;17.25;;;8.60;;
54123;SDS011;55741;53.252;5.788;2023-04-06T08:15:27;14.07;;;9.70;;
54123;SDS011;55741;53.252;5.788;2023-04-06T08:17:53;12.25;;;9.00;;
54123;SDS011;55741;53.252;5.788;2023-04-06T08:20:22;13.75;;;8.95;;
54123;SDS011;55741;53.252;5.788;2023-04-06T08:22:48;15.38;;;9.13;;
54123;SDS011;55741;53.252;5.788;2023-04-06T08:25:14;17.77;;;9.45;;
54123;SDS011;55741;53.252;5.788;2023-04-06T08:27:40;18.55;;;10.77;;
54123;SDS011;55741;53.252;5.788;2023-04-06T08:30:06;16.65;;;10.30;;
54123;SDS011;55741;53.252;5.788;2023-04-06T08:32:32;19.40;;;9.85;;
54123;SDS011;55741;53.252;5.788;2023-04-06T08:34:58;15.70;;;10.70;;
54123;SDS011;55741;53.252;5.788;2023-04-06T08:37:24;17.33;;;9.85;;
54123;SDS011;55741;53.252;5.788;2023-04-06T08:39:50;14.75;;;9.88;;
54123;SDS011;55741;53.252;5.788;2023-04-06T08:42:19;19.25;;;11.48;;
54123;SDS011;55741;53.252;5.788;2023-04-06T08:44:46;15.02;;;10.63;;
54123;SDS011;55741;53.252;5.788;2023-04-06T08:47:14;15.18;;;10.98;;
54123;SDS011;55741;53.252;5.788;2023-04-06T08:49:40;17.98;;;11.40;;
54123;SDS011;55741;53.252;5.788;2023-04-06T08:52:07;15.63;;;10.82;;
54123;SDS011;55741;53.252;5.788;2023-04-06T08:54:33;18.25;;;11.88;;
54123;SDS011;55741;53.252;5.788;2023-04-06T08:57:00;19.35;;;11.40;;
54123;SDS011;55741;53.252;5.788;2023-04-06T08:59:27;15.45;;;11.43;;
54123;SDS011;55741;53.252;5.788;2023-04-06T09:01:53;17.30;;;11.23;;
54123;SDS011;55741;53.252;5.788;2023-04-06T09:04:20;15.95;;;11.55;;
54123;SDS011;55741;53.252;5.788;2023-04-06T09:06:46;15.73;;;11.32;;
54123;SDS011;55741;53.252;5.788;2023-04-06T09:09:12;18.33;;;12.23;;
54123;SDS011;55741;53.252;5.788;2023-04-06T09:11:42;18.90;;;11.90;;
54123;SDS011;55741;53.252;5.788;2023-04-06T09:14:12;19.20;;;12.23;;
54123;SDS011;55741;53.252;5.788;2023-04-06T09:16:44;16.90;;;12.25;;
54123;SDS011;55741;53.252;5.788;2023-04-06T09:19:11;19.58;;;14.02;;
54123;SDS011;55741;53.252;5.788;2023-04-06T09:21:37;17.40;;;13.07;;
54123;SDS011;55741;53.252;5.788;2023-04-06T09:24:06;20.80;;;13.70;;
54123;SDS011;55741;53.252;5.788;2023-04-06T09:26:44;19.92;;;13.30;;
54123;SDS011;55741;53.252;5.788;2023-04-06T09:29:21;17.33;;;13.00;;
54123;SDS011;55741;53.252;5.788;2023-04-06T09:31:51;18.42;;;14.32;;
54123;SDS011;55741;53.252;5.788;2023-04-06T09:34:21;20.15;;;14.27;;
54123;SDS011;55741;53.252;5.788;2023-04-06T09:36:48;20.83;;;14.32;;
54123;SDS011;55741;53.252;5.788;2023-04-06T09:39:14;22.70;;;15.02;;
54123;SDS011;55741;53.252;5.788;2023-04-06T09:41:40;20.98;;;14.32;;
54123;SDS011;55741;53.252;5.788;2023-04-06T09:44:10;21.13;;;14.02;;
54123;SDS011;55741;53.252;5.788;2023-04-06T09:46:40;19.35;;;14.57;;
54123;SDS011;55741;53.252;5.788;2023-04-06T09:49:10;20.10;;;14.77;;
54123;SDS011;55741;53.252;5.788;2023-04-06T09:51:40;23.60;;;14.45;;
54123;SDS011;55741;53.252;5.788;2023-04-06T09:54:08;23.50;;;15.10;;
54123;SDS011;55741;53.252;5.788;2023-04-06T09:56:44;22.13;;;15.13;;
54123;SDS011;55741;53.252;5.788;2023-04-06T09:59:26;20.45;;;15.52;;
54123;SDS011;55741;53.252;5.788;2023-04-06T10:01:53;22.27;;;15.32;;
54123;SDS011;55741;53.252;5.788;2023-04-06T10:04:34;21.83;;;15.30;;
54123;SDS011;55741;53.252;5.788;2023-04-06T10:07:02;24.95;;;16.10;;
54123;SDS011;55741;53.252;5.788;2023-04-06T10:09:29;21.27;;;15.73;;
54123;SDS011;55741;53.252;5.788;2023-04-06T10:12:04;22.48;;;15.82;;
54123;SDS011;55741;53.252;5.788;2023-04-06T10:14:34;25.95;;;16.77;;
54123;SDS011;55741;53.252;5.788;2023-04-06T10:17:05;25.83;;;16.00;;
54123;SDS011;55741;53.252;5.788;2023-04-06T10:19:39;23.33;;;15.88;;
54123;SDS011;55741;53.252;5.788;2023-04-06T10:22:05;24.70;;;15.82;;
54123;SDS011;55741;53.252;5.788;2023-04-06T10:24:35;26.35;;;17.05;;
54123;SDS011;55741;53.252;5.788;2023-04-06T10:27:02;24.30;;;16.33;;
54123;SDS011;55741;53.252;5.788;2023-04-06T10:29:41;25.77;;;17.15;;
54123;SDS011;55741;53.252;5.788;2023-04-06T10:32:10;25.85;;;17.20;;
54123;SDS011;55741;53.252;5.788;2023-04-06T10:34:36;36.45;;;17.38;;
54123;SDS011;55741;53.252;5.788;2023-04-06T10:37:15;23.73;;;16.50;;
54123;SDS011;55741;53.252;5.788;2023-04-06T10:39:53;23.95;;;17.00;;
54123;SDS011;55741;53.252;5.788;2023-04-06T10:42:23;22.92;;;17.45;;
54123;SDS011;55741;53.252;5.788;2023-04-06T10:44:50;25.90;;;17.25;;
54123;SDS011;55741;53.252;5.788;2023-04-06T10:47:17;27.60;;;16.83;;
54123;SDS011;55741;53.252;5.788;2023-04-06T10:49:43;28.92;;;17.38;;
54123;SDS011;55741;53.252;5.788;2023-04-06T10:52:09;23.38;;;16.80;;
54123;SDS011;55741;53.252;5.788;2023-04-06T10:54:35;25.58;;;18.35;;
54123;SDS011;55741;53.252;5.788;2023-04-06T10:57:08;25.77;;;18.70;;
54123;SDS011;55741;53.252;5.788;2023-04-06T10:59:33;29.65;;;18.23;;
54123;SDS011;55741;53.252;5.788;2023-04-06T11:01:59;31.10;;;20.05;;
54123;SDS011;55741;53.252;5.788;2023-04-06T11:04:25;34.08;;;20.90;;
54123;SDS011;55741;53.252;5.788;2023-04-06T11:06:51;25.75;;;18.10;;
54123;SDS011;55741;53.252;5.788;2023-04-06T11:09:26;26.42;;;18.98;;
54123;SDS011;55741;53.252;5.788;2023-04-06T11:11:53;29.60;;;19.65;;
54123;SDS011;55741;53.252;5.788;2023-04-06T11:14:20;30.70;;;20.13;;
54123;SDS011;55741;53.252;5.788;2023-04-06T11:16:47;29.30;;;18.98;;
54123;SDS011;55741;53.252;5.788;2023-04-06T11:19:17;34.47;;;21.50;;
54123;SDS011;55741;53.252;5.788;2023-04-06T11:21:45;31.50;;;21.55;;
54123;SDS011;55741;53.252;5.788;2023-04-06T11:24:22;29.30;;;19.38;;
54123;SDS011;55741;53.252;5.788;2023-04-06T11:29:26;34.88;;;21.75;;
54123;SDS011;55741;53.252;5.788;2023-04-06T11:32:00;35.17;;;21.13;;
54123;SDS011;55741;53.252;5.788;2023-04-06T11:34:32;31.50;;;20.50;;
54123;SDS011;55741;53.252;5.788;2023-04-06T11:37:02;27.70;;;19.05;;
54123;SDS011;55741;53.252;5.788;2023-04-06T11:39:37;35.22;;;19.20;;
54123;SDS011;55741;53.252;5.788;2023-04-06T11:42:04;27.15;;;19.30;;
54123;SDS011;55741;53.252;5.788;2023-04-06T11:44:34;26.00;;;19.33;;
54123;SDS011;55741;53.252;5.788;2023-04-06T11:47:04;28.20;;;19.65;;
54123;SDS011;55741;53.252;5.788;2023-04-06T11:49:32;26.30;;;19.42;;
54123;SDS011;55741;53.252;5.788;2023-04-06T11:52:01;26.88;;;18.60;;
54123;SDS011;55741;53.252;5.788;2023-04-06T11:54:34;25.45;;;19.45;;
54123;SDS011;55741;53.252;5.788;2023-04-06T11:57:02;26.00;;;17.90;;
54123;SDS011;55741;53.252;5.788;2023-04-06T11:59:29;28.75;;;18.15;;
54123;SDS011;55741;53.252;5.788;2023-04-06T12:01:57;23.63;;;17.55;;
54123;SDS011;55741;53.252;5.788;2023-04-06T12:04:23;26.48;;;18.35;;
54123;SDS011;55741;53.252;5.788;2023-04-06T12:06:49;24.40;;;17.55;;
54123;SDS011;55741;53.252;5.788;2023-04-06T12:09:16;27.58;;;19.70;;
54123;SDS011;55741;53.252;5.788;2023-04-06T12:11:42;21.58;;;17.05;;
54123;SDS011;55741;53.252;5.788;2023-04-06T12:14:08;24.77;;;18.23;;
54123;SDS011;55741;53.252;5.788;2023-04-06T12:16:35;21.10;;;16.20;;
54123;SDS011;55741;53.252;5.788;2023-04-06T12:19:01;23.88;;;16.98;;
54123;SDS011;55741;53.252;5.788;2023-04-06T12:21:28;27.05;;;17.27;;
54123;SDS011;55741;53.252;5.788;2023-04-06T12:23:56;24.33;;;16.80;;
54123;SDS011;55741;53.252;5.788;2023-04-06T12:26:23;20.83;;;16.05;;
54123;SDS011;55741;53.252;5.788;2023-04-06T12:28:50;25.17;;;20.58;;
54123;SDS011;55741;53.252;5.788;2023-04-06T12:31:19;22.20;;;15.10;;
54123;SDS011;55741;53.252;5.788;2023-04-06T12:33:46;20.20;;;15.05;;
54123;SDS011;55741;53.252;5.788;2023-04-06T12:36:14;20.52;;;15.15;;
54123;SDS011;55741;53.252;5.788;2023-04-06T12:38:44;24.80;;;16.73;;
54123;SDS011;55741;53.252;5.788;2023-04-06T12:41:11;19.88;;;13.95;;
54123;SDS011;55741;53.252;5.788;2023-04-06T12:43:37;20.42;;;13.38;;
54123;SDS011;55741;53.252;5.788;2023-04-06T12:46:05;19.50;;;11.60;;
54123;SDS011;55741;53.252;5.788;2023-04-06T12:48:31;14.23;;;8.32;;
54123;SDS011;55741;53.252;5.788;2023-04-06T12:50:57;14.02;;;9.63;;
54123;SDS011;55741;53.252;5.788;2023-04-06T12:53:24;16.63;;;11.48;;
54123;SDS011;55741;53.252;5.788;2023-04-06T12:55:53;21.38;;;14.35;;
54123;SDS011;55741;53.252;5.788;2023-04-06T12:58:23;17.55;;;13.48;;
54123;SDS011;55741;53.252;5.788;2023-04-06T13:00:51;17.70;;;12.75;;
54123;SDS011;55741;53.252;5.788;2023-04-06T13:03:18;17.83;;;12.23;;
54123;SDS011;55741;53.252;5.788;2023-04-06T13:05:45;17.25;;;12.13;;
54123;SDS011;55741;53.252;5.788;2023-04-06T13:08:12;17.13;;;12.18;;
54123;SDS011;55741;53.252;5.788;2023-04-06T13:10:48;13.85;;;10.35;;
54123;SDS011;55741;53.252;5.788;2023-04-06T13:13:16;13.30;;;9.18;;
54123;SDS011;55741;53.252;5.788;2023-04-06T13:15:42;13.23;;;10.02;;
54123;SDS011;55741;53.252;5.788;2023-04-06T13:18:10;14.75;;;9.40;;
54123;SDS011;55741;53.252;5.788;2023-04-06T13:20:36;15.45;;;9.30;;
54123;SDS011;55741;53.252;5.788;2023-04-06T13:23:03;11.98;;;8.50;;
54123;SDS011;55741;53.252;5.788;2023-04-06T13:25:29;12.45;;;8.60;;
54123;SDS011;55741;53.252;5.788;2023-04-06T13:27:55;10.73;;;8.63;;
54123;SDS011;55741;53.252;5.788;2023-04-06T13:30:21;15.80;;;9.80;;
54123;SDS011;55741;53.252;5.788;2023-04-06T13:32:47;14.23;;;10.93;;
54123;SDS011;55741;53.252;5.788;2023-04-06T13:35:14;15.43;;;10.82;;
54123;SDS011;55741;53.252;5.788;2023-04-06T13:37:40;18.55;;;11.63;;
54123;SDS011;55741;53.252;5.788;2023-04-06T13:40:06;19.45;;;12.75;;
54123;SDS011;55741;53.252;5.788;2023-04-06T13:42:32;22.23;;;13.18;;
54123;SDS011;55741;53.252;5.788;2023-04-06T13:45:00;21.02;;;14.15;;
54123;SDS011;55741;53.252;5.788;2023-04-06T13:47:27;20.50;;;14.32;;
54123;SDS011;55741;53.252;5.788;2023-04-06T13:49:53;19.05;;;13.82;;
54123;SDS011;55741;53.252;5.788;2023-04-06T13:52:20;21.65;;;13.88;;
54123;SDS011;55741;53.252;5.788;2023-04-06T13:54:46;18.17;;;13.65;;
54123;SDS011;55741;53.252;5.788;2023-04-06T13:57:12;23.77;;;15.07;;
54123;SDS011;55741;53.252;5.788;2023-04-06T13:59:38;20.00;;;13.65;;
54123;SDS011;55741;53.252;5.788;2023-04-06T14:02:06;21.27;;;14.50;;
54123;SDS011;55741;53.252;5.788;2023-04-06T14:04:33;24.45;;;14.32;;
54123;SDS011;55741;53.252;5.788;2023-04-06T14:06:59;22.20;;;14.52;;
54123;SDS011;55741;53.252;5.788;2023-04-06T14:09:27;19.02;;;14.13;;
54123;SDS011;55741;53.252;5.788;2023-04-06T14:11:54;22.10;;;15.20;;
54123;SDS011;55741;53.252;5.788;2023-04-06T14:14:21;24.33;;;15.23;;
54123;SDS011;55741;53.252;5.788;2023-04-06T14:16:48;20.30;;;15.18;;
54123;SDS011;55741;53.252;5.788;2023-04-06T14:19:15;23.10;;;16.35;;
54123;SDS011;55741;53.252;5.788;2023-04-06T14:21:42;20.73;;;15.60;;
54123;SDS011;55741;53.252;5.788;2023-04-06T14:24:13;19.92;;;14.98;;
54123;SDS011;55741;53.252;5.788;2023-04-06T14:26:39;23.58;;;15.02;;
54123;SDS011;55741;53.252;5.788;2023-04-06T14:29:06;23.90;;;15.80;;
54123;SDS011;55741;53.252;5.788;2023-04-06T14:31:32;24.80;;;16.65;;
54123;SDS011;55741;53.252;5.788;2023-04-06T14:34:00;23.45;;;17.58;;